createdAt,value
2017-07-28T00:00:21.108Z,5.67
2017-07-28T00:02:49.452Z,6.10
2017-07-28T00:05:17.805Z,5.83
2017-07-28T00:07:46.645Z,5.43
2017-07-28T00:10:15.012Z,4.93
2017-07-28T00:12:43.356Z,5.53
2017-07-28T00:15:11.977Z,6.60
2017-07-28T00:17:40.344Z,5.20
2017-07-28T00:20:08.685Z,5.70
2017-07-28T00:22:37.560Z,5.43
2017-07-28T00:25:05.920Z,5.73
2017-07-28T00:27:35.025Z,5.27
2017-07-28T00:30:03.639Z,5.00
2017-07-28T00:32:31.286Z,5.53
2017-07-28T00:34:59.635Z,5.03
2017-07-28T00:37:28.524Z,5.10
2017-07-28T00:39:56.861Z,4.87
2017-07-28T00:42:25.769Z,5.60
2017-07-28T00:44:54.485Z,4.93
2017-07-28T00:47:22.856Z,5.43
2017-07-28T00:49:51.215Z,5.13
2017-07-28T00:52:20.137Z,5.00
2017-07-28T00:54:48.492Z,5.77
2017-07-28T00:57:17.650Z,5.80
2017-07-28T00:59:46.540Z,5.00
2017-07-28T01:02:14.896Z,5.40
2017-07-28T01:04:43.253Z,4.63
2017-07-28T01:07:12.171Z,5.73
2017-07-28T01:09:40.510Z,5.23
2017-07-28T01:12:08.867Z,5.40
2017-07-28T01:14:37.517Z,5.00
2017-07-28T01:17:05.893Z,4.80
2017-07-28T01:19:34.241Z,6.03
2017-07-28T01:22:03.123Z,5.10
2017-07-28T01:24:31.480Z,5.70
2017-07-28T01:26:59.842Z,5.30
2017-07-28T01:29:28.662Z,5.83
2017-07-28T01:31:56.988Z,5.57
2017-07-28T01:34:26.169Z,5.50
2017-07-28T01:36:54.862Z,5.63
2017-07-28T01:39:24.034Z,5.90
2017-07-28T01:41:53.144Z,5.87
2017-07-28T01:44:21.946Z,5.80
2017-07-28T01:46:50.309Z,6.00
2017-07-28T01:49:18.672Z,5.60
2017-07-28T01:51:47.453Z,5.33
2017-07-28T01:54:15.803Z,5.70
2017-07-28T01:56:44.147Z,6.23
2017-07-28T01:59:12.771Z,6.43
2017-07-28T02:01:41.113Z,5.10
2017-07-28T02:04:09.440Z,6.77
2017-07-28T02:06:38.434Z,6.30
2017-07-28T02:09:06.771Z,6.60
2017-07-28T02:11:35.126Z,6.50
2017-07-28T02:14:03.989Z,5.60
2017-07-28T02:16:32.328Z,6.77
2017-07-28T02:19:00.676Z,6.53
2017-07-28T02:21:30.109Z,6.80
2017-07-28T02:23:58.474Z,6.10
2017-07-28T02:26:26.820Z,6.13
2017-07-28T02:28:56.454Z,6.47
2017-07-28T02:31:24.800Z,6.77
2017-07-28T02:33:53.138Z,6.07
2017-07-28T02:36:22.518Z,5.80
2017-07-28T02:38:50.989Z,6.33
2017-07-28T02:41:19.383Z,6.10
2017-07-28T02:43:48.166Z,6.70
2017-07-28T02:46:16.527Z,6.50
2017-07-28T02:48:45.663Z,5.90
2017-07-28T02:51:14.411Z,6.70
2017-07-28T02:53:42.756Z,6.10
2017-07-28T02:56:11.124Z,6.63
2017-07-28T02:58:40.081Z,6.03
2017-07-28T03:01:08.427Z,6.40
2017-07-28T03:03:36.760Z,6.30
2017-07-28T03:06:06.396Z,6.93
2017-07-28T03:08:34.733Z,6.50
2017-07-28T03:11:03.116Z,6.17
2017-07-28T03:13:31.919Z,7.57
2017-07-28T03:16:00.275Z,6.97
2017-07-28T03:18:28.654Z,6.63
2017-07-28T03:20:57.632Z,7.10
2017-07-28T03:23:25.979Z,7.70
2017-07-28T03:25:54.343Z,7.43
2017-07-28T03:28:23.085Z,6.70
2017-07-28T03:30:51.446Z,7.07
2017-07-28T03:33:19.828Z,7.60
2017-07-28T03:35:48.514Z,7.10
2017-07-28T03:38:17.054Z,6.80
2017-07-28T03:40:45.403Z,7.43
2017-07-28T03:43:14.952Z,8.50
2017-07-28T03:45:43.299Z,7.40
2017-07-28T03:48:11.662Z,7.77
2017-07-28T03:50:40.287Z,7.50
2017-07-28T03:53:08.637Z,7.27
2017-07-28T03:55:36.983Z,8.00
2017-07-28T03:58:05.622Z,7.40
2017-07-28T04:00:33.976Z,7.40
2017-07-28T04:03:02.328Z,7.13
2017-07-28T04:05:31.593Z,7.70
2017-07-28T04:07:59.947Z,7.40
2017-07-28T04:10:28.283Z,8.53
2017-07-28T04:12:57.434Z,7.77
2017-07-28T04:15:26.669Z,9.80
2017-07-28T04:17:55.038Z,9.40
2017-07-28T04:20:23.874Z,8.30
2017-07-28T04:22:52.223Z,9.07
2017-07-28T04:25:20.562Z,9.07
2017-07-28T04:27:49.623Z,8.60
2017-07-28T04:30:17.973Z,9.43
2017-07-28T04:32:46.323Z,9.07
2017-07-28T04:35:14.956Z,9.83
2017-07-28T04:37:43.319Z,8.50
2017-07-28T04:40:11.685Z,9.33
2017-07-28T04:42:40.356Z,9.13
2017-07-28T04:45:08.704Z,9.73
2017-07-28T04:47:37.059Z,9.57
2017-07-28T04:50:06.660Z,9.47
2017-07-28T04:52:35.012Z,9.90
2017-07-28T04:55:03.367Z,9.87
2017-07-28T04:57:32.133Z,11.10
2017-07-28T05:00:00.492Z,11.07
2017-07-28T05:02:28.868Z,10.87
2017-07-28T05:04:57.577Z,11.40
2017-07-28T05:07:25.935Z,11.17
2017-07-28T05:09:54.314Z,11.53
2017-07-28T05:12:23.185Z,11.67
2017-07-28T05:14:51.539Z,11.40
2017-07-28T05:17:19.888Z,12.20
2017-07-28T05:19:48.667Z,11.77
2017-07-28T05:22:17.024Z,11.50
2017-07-28T05:24:46.180Z,11.53
2017-07-28T05:27:15.133Z,12.07
2017-07-28T05:29:43.498Z,12.00
2017-07-28T05:32:11.854Z,11.30
2017-07-28T05:34:40.581Z,11.37
2017-07-28T05:37:08.926Z,10.60
2017-07-28T05:39:37.285Z,10.33
2017-07-28T05:42:06.292Z,9.73
2017-07-28T05:44:34.658Z,9.60
2017-07-28T05:47:03.013Z,8.77
2017-07-28T05:49:31.699Z,8.57
2017-07-28T05:52:00.053Z,8.30
2017-07-28T05:54:28.435Z,7.40
2017-07-28T05:56:57.463Z,7.87
2017-07-28T05:59:26.263Z,7.20
2017-07-28T06:01:54.623Z,6.60
2017-07-28T06:04:23.411Z,6.60
2017-07-28T06:06:51.772Z,7.50
2017-07-28T06:09:20.130Z,7.53
2017-07-28T06:11:48.994Z,7.30
2017-07-28T06:14:17.355Z,6.27
2017-07-28T06:16:45.730Z,6.10
2017-07-28T06:19:14.900Z,5.83
2017-07-28T06:21:43.285Z,5.33
2017-07-28T06:24:11.620Z,6.00
2017-07-28T06:26:40.395Z,5.70
2017-07-28T06:29:08.739Z,4.50
2017-07-28T06:31:37.084Z,4.60
2017-07-28T06:34:05.960Z,5.03
2017-07-28T06:36:34.397Z,5.03
2017-07-28T06:39:02.779Z,4.70
2017-07-28T06:41:31.647Z,5.30
2017-07-28T06:43:59.984Z,5.00
2017-07-28T06:46:29.143Z,4.40
2017-07-28T06:48:57.836Z,5.23
2017-07-28T06:51:26.187Z,5.07
2017-07-28T06:53:54.528Z,4.60
2017-07-28T06:56:24.181Z,4.90
2017-07-28T06:58:52.573Z,5.03
2017-07-28T07:01:20.935Z,4.87
2017-07-28T07:03:49.785Z,5.07
2017-07-28T07:06:18.151Z,4.67
2017-07-28T07:08:46.518Z,4.43
2017-07-28T07:11:15.272Z,4.73
2017-07-28T07:13:43.635Z,4.77
2017-07-28T07:16:11.996Z,4.50
2017-07-28T07:18:40.719Z,3.97
2017-07-28T07:21:09.058Z,5.80
2017-07-28T07:23:38.262Z,5.10
2017-07-28T07:26:07.401Z,4.97
2017-07-28T07:28:35.783Z,5.43
2017-07-28T07:31:04.166Z,5.40
2017-07-28T07:33:32.807Z,6.00
2017-07-28T07:36:01.207Z,5.30
2017-07-28T07:38:29.624Z,5.97
2017-07-28T07:40:58.452Z,6.80
2017-07-28T07:43:26.801Z,5.87
2017-07-28T07:45:55.165Z,6.30
2017-07-28T07:48:24.129Z,4.30
2017-07-28T07:50:52.505Z,5.57
2017-07-28T07:53:20.867Z,5.20
2017-07-28T07:55:49.785Z,4.93
2017-07-28T07:58:18.126Z,4.27
2017-07-28T08:00:46.485Z,5.07
2017-07-28T08:03:15.192Z,4.57
2017-07-28T08:05:43.586Z,4.73
2017-07-28T08:08:11.961Z,5.27
2017-07-28T08:10:40.893Z,4.07
2017-07-28T08:13:09.256Z,3.90
2017-07-28T08:15:38.640Z,4.73
2017-07-28T08:18:07.516Z,3.90
2017-07-28T08:20:35.882Z,4.20
2017-07-28T08:23:04.242Z,4.23
2017-07-28T08:25:32.886Z,4.63
2017-07-28T08:28:01.228Z,5.70
2017-07-28T08:30:29.611Z,5.00
2017-07-28T08:32:59.265Z,4.67
2017-07-28T08:35:27.643Z,4.00
2017-07-28T08:37:55.999Z,4.87
2017-07-28T08:40:24.702Z,4.10
2017-07-28T08:42:53.102Z,4.73
2017-07-28T08:45:21.428Z,3.77
2017-07-28T08:47:50.354Z,4.17
2017-07-28T08:50:18.710Z,4.67
2017-07-28T08:52:47.063Z,4.33
2017-07-28T08:55:16.015Z,4.83
2017-07-28T08:57:44.360Z,3.93
2017-07-28T09:00:13.478Z,4.30
2017-07-28T09:02:42.239Z,5.40
2017-07-28T09:05:10.623Z,3.93
2017-07-28T09:07:39.767Z,3.87
2017-07-28T09:10:08.412Z,4.00
2017-07-28T09:12:37.478Z,4.23
2017-07-28T09:15:05.843Z,4.37
2017-07-28T09:17:35.000Z,4.50
2017-07-28T09:20:03.336Z,4.77
2017-07-28T09:22:31.696Z,4.73
2017-07-28T09:25:00.522Z,3.80
2017-07-28T09:27:29.678Z,3.53
2017-07-28T09:29:58.022Z,4.37
2017-07-28T09:32:26.674Z,4.43
2017-07-28T09:34:55.034Z,3.80
2017-07-28T09:37:23.446Z,3.77
2017-07-28T09:39:52.352Z,3.67
2017-07-28T09:42:20.722Z,3.60
2017-07-28T09:44:49.839Z,3.60
2017-07-28T09:47:18.566Z,4.70
2017-07-28T09:49:46.904Z,4.20
2017-07-28T09:52:15.255Z,4.13
2017-07-28T09:54:43.940Z,4.03
2017-07-28T09:57:12.304Z,4.07
2017-07-28T09:59:40.655Z,4.17
2017-07-28T10:02:09.401Z,4.20
2017-07-28T10:04:37.833Z,4.00
2017-07-28T10:07:06.196Z,4.20
2017-07-28T10:09:34.858Z,4.87
2017-07-28T10:12:03.212Z,4.90
2017-07-28T10:14:31.583Z,3.83
2017-07-28T10:17:00.278Z,4.10
2017-07-28T10:19:28.684Z,4.33
2017-07-28T10:21:57.030Z,3.77
2017-07-28T10:24:26.672Z,4.80
2017-07-28T10:26:55.044Z,4.03
2017-07-28T10:29:24.165Z,3.57
2017-07-28T10:31:53.031Z,4.53
2017-07-28T10:34:21.439Z,4.17
2017-07-28T10:36:49.837Z,3.40
2017-07-28T10:39:18.611Z,4.00
2017-07-28T10:41:46.956Z,4.23
2017-07-28T10:44:15.338Z,4.30
2017-07-28T10:46:44.018Z,4.23
2017-07-28T10:49:12.388Z,4.80
2017-07-28T10:51:40.763Z,3.47
2017-07-28T10:54:09.777Z,3.80
2017-07-28T10:56:38.384Z,4.13
2017-07-28T10:59:06.750Z,4.40
2017-07-28T11:01:35.536Z,3.77
2017-07-28T11:04:03.878Z,3.90
2017-07-28T11:06:32.242Z,5.00
2017-07-28T11:09:01.119Z,4.63
2017-07-28T11:11:29.483Z,4.40
2017-07-28T11:13:57.874Z,5.50
2017-07-28T11:16:26.497Z,4.30
2017-07-28T11:18:55.614Z,4.70
2017-07-28T11:21:24.011Z,5.20
2017-07-28T11:23:53.042Z,5.33
2017-07-28T11:26:21.411Z,4.10
2017-07-28T11:28:49.756Z,4.73
2017-07-28T11:31:18.634Z,4.10
2017-07-28T11:33:47.001Z,4.80
2017-07-28T11:36:15.364Z,4.67
2017-07-28T11:38:44.028Z,4.87
2017-07-28T11:41:12.386Z,4.53
2017-07-28T11:43:40.750Z,5.03
2017-07-28T11:46:09.438Z,5.40
2017-07-28T11:48:37.815Z,4.70
2017-07-28T11:51:06.194Z,4.80
2017-07-28T11:53:35.086Z,4.60
2017-07-28T11:56:03.445Z,5.50
2017-07-28T11:58:31.789Z,5.00
2017-07-28T12:01:00.758Z,2.40
2017-07-28T12:03:29.116Z,2.93
2017-07-28T12:05:57.442Z,2.60
2017-07-28T12:08:26.105Z,2.20
2017-07-28T12:10:54.454Z,2.20
2017-07-28T12:13:23.380Z,2.57
2017-07-28T12:15:52.446Z,2.47
2017-07-28T12:18:20.789Z,3.00
2017-07-28T12:20:49.128Z,4.10
2017-07-28T12:23:17.769Z,2.47
2017-07-28T12:25:46.185Z,3.70
2017-07-28T12:28:14.537Z,3.00
2017-07-28T12:30:43.289Z,3.10
2017-07-28T12:33:11.673Z,3.37
2017-07-28T12:35:40.830Z,3.27
2017-07-28T12:38:09.639Z,3.33
2017-07-28T12:40:38.020Z,3.70
2017-07-28T12:43:06.381Z,4.00
2017-07-28T12:45:35.061Z,3.63
2017-07-28T12:48:03.449Z,3.60
2017-07-28T12:50:31.789Z,3.17
2017-07-28T12:53:00.689Z,2.90
2017-07-28T12:55:29.020Z,3.10
2017-07-28T12:57:57.383Z,3.13
2017-07-28T13:00:26.221Z,2.70
2017-07-28T13:02:55.360Z,3.20
2017-07-28T13:05:24.557Z,2.30
2017-07-28T13:07:53.241Z,2.80
2017-07-28T13:10:21.619Z,3.30
2017-07-28T13:12:49.969Z,3.17
2017-07-28T13:15:18.919Z,2.80
2017-07-28T13:17:47.282Z,3.73
2017-07-28T13:20:15.633Z,3.10
2017-07-28T13:22:44.505Z,3.60
2017-07-28T13:25:12.866Z,3.60
2017-07-28T13:27:41.995Z,3.13
2017-07-28T13:30:10.639Z,3.93
2017-07-28T13:32:38.995Z,3.43
2017-07-28T13:35:07.370Z,4.43
2017-07-28T13:37:36.191Z,5.20
2017-07-28T13:40:04.531Z,4.83
2017-07-28T13:42:32.894Z,4.50
2017-07-28T13:45:01.853Z,3.33
2017-07-28T13:47:30.224Z,3.17
2017-07-28T13:49:58.598Z,2.80
2017-07-28T13:52:27.617Z,3.50
2017-07-28T13:54:56.722Z,2.97
2017-07-28T13:57:25.096Z,4.17
2017-07-28T13:59:53.745Z,3.93
2017-07-28T14:02:22.114Z,3.80
2017-07-28T14:04:50.458Z,5.03
2017-07-28T14:07:19.620Z,3.90
2017-07-28T14:09:47.971Z,3.77
2017-07-28T14:12:16.342Z,3.80
2017-07-28T14:14:45.083Z,4.20
2017-07-28T14:17:13.645Z,3.73
2017-07-28T14:19:42.778Z,4.00
2017-07-28T14:22:11.462Z,5.10
2017-07-28T14:24:40.197Z,4.50
2017-07-28T14:27:08.551Z,5.57
2017-07-28T14:29:37.409Z,5.20
2017-07-28T14:32:05.771Z,5.67
2017-07-28T14:34:34.146Z,5.30
2017-07-28T14:37:02.853Z,4.27
2017-07-28T14:39:31.211Z,4.40
2017-07-28T14:42:00.359Z,4.77
2017-07-28T14:44:29.160Z,4.10
2017-07-28T14:46:57.506Z,3.77
2017-07-28T14:49:25.909Z,5.10
2017-07-28T14:51:54.781Z,4.30
2017-07-28T14:54:23.148Z,5.37
2017-07-28T14:56:52.288Z,4.10
2017-07-28T14:59:21.046Z,4.97
2017-07-28T15:01:49.419Z,3.37
2017-07-28T15:04:17.767Z,4.27
2017-07-28T15:06:46.688Z,4.27
2017-07-28T15:09:15.063Z,3.97
2017-07-28T15:11:43.439Z,3.57
2017-07-28T15:14:13.296Z,3.57
2017-07-28T15:16:41.700Z,3.33
2017-07-28T15:19:10.072Z,3.80
2017-07-28T15:21:39.014Z,4.00
2017-07-28T15:24:07.368Z,5.10
2017-07-28T15:26:35.748Z,3.93
2017-07-28T15:29:04.687Z,3.50
2017-07-28T15:31:33.066Z,3.97
2017-07-28T15:34:01.410Z,4.10
2017-07-28T15:36:30.316Z,3.60
2017-07-28T15:38:58.746Z,3.77
2017-07-28T15:41:27.144Z,3.33
2017-07-28T15:43:55.957Z,3.30
2017-07-28T15:46:24.298Z,3.30
2017-07-28T15:48:52.691Z,3.60
2017-07-28T15:51:21.434Z,3.90
2017-07-28T15:53:49.795Z,4.37
2017-07-28T15:56:18.221Z,3.83
2017-07-28T15:58:47.056Z,4.00
2017-07-28T16:01:15.431Z,3.80
2017-07-28T16:03:44.594Z,4.83
2017-07-28T16:06:13.331Z,4.30
2017-07-28T16:08:41.671Z,4.07
2017-07-28T16:11:10.014Z,4.17
2017-07-28T16:13:39.074Z,3.40
2017-07-28T16:16:07.493Z,4.63
2017-07-28T16:18:35.825Z,4.10
2017-07-28T16:21:04.931Z,3.80
2017-07-28T16:23:33.297Z,4.00
2017-07-28T16:26:01.652Z,3.20
2017-07-28T16:28:30.473Z,3.83
2017-07-28T16:30:58.802Z,3.43
2017-07-28T16:33:27.183Z,3.90
2017-07-28T16:35:55.849Z,4.17
2017-07-28T16:38:24.206Z,3.40
2017-07-28T16:40:53.373Z,3.80
2017-07-28T16:43:22.854Z,3.80
2017-07-28T16:45:51.229Z,3.50
2017-07-28T16:48:19.629Z,6.40
2017-07-28T16:50:49.376Z,3.97
2017-07-28T16:53:18.463Z,4.10
2017-07-28T16:55:46.828Z,4.40
2017-07-28T16:58:15.559Z,4.13
2017-07-28T17:00:43.917Z,3.70
2017-07-28T17:03:12.267Z,3.77
2017-07-28T17:05:41.215Z,4.77
2017-07-28T17:08:09.563Z,4.20
2017-07-28T17:10:37.930Z,4.30
2017-07-28T17:13:06.575Z,3.93
2017-07-28T17:15:34.967Z,3.60
2017-07-28T17:18:04.108Z,4.43
2017-07-28T17:20:32.813Z,4.00
2017-07-28T17:23:01.203Z,4.33
2017-07-28T17:25:29.664Z,5.10
2017-07-28T17:27:58.388Z,4.20
2017-07-28T17:30:26.730Z,5.50
2017-07-28T17:32:55.107Z,4.60
2017-07-28T17:35:23.786Z,4.80
2017-07-28T17:37:52.177Z,7.30
2017-07-28T17:40:20.886Z,5.90
2017-07-28T17:42:49.859Z,4.00
2017-07-28T17:45:18.218Z,4.00
2017-07-28T17:47:46.566Z,4.17
2017-07-28T17:50:15.522Z,4.40
2017-07-28T17:52:43.897Z,6.27
2017-07-28T17:55:12.321Z,4.13
2017-07-28T17:57:41.169Z,4.03
2017-07-28T18:00:09.556Z,4.70
2017-07-28T18:02:37.907Z,5.37
2017-07-28T18:05:06.537Z,4.33
2017-07-28T18:07:34.990Z,5.03
2017-07-28T18:10:03.450Z,4.80
2017-07-28T18:12:32.268Z,4.30
2017-07-28T18:15:01.362Z,3.80
2017-07-28T18:17:29.780Z,4.47
2017-07-28T18:19:58.725Z,5.13
2017-07-28T18:22:27.158Z,5.00
2017-07-28T18:24:55.556Z,4.70
2017-07-28T18:27:25.050Z,4.70
2017-07-28T18:29:53.483Z,5.07
2017-07-28T18:32:21.964Z,5.10
2017-07-28T18:34:51.709Z,4.77
2017-07-28T18:37:20.540Z,4.30
2017-07-28T18:39:48.982Z,5.20
2017-07-28T18:42:18.050Z,4.27
2017-07-28T18:44:46.490Z,5.10
2017-07-28T18:47:14.938Z,5.20
2017-07-28T18:49:43.750Z,5.40
2017-07-28T18:52:12.179Z,5.33
2017-07-28T18:54:40.598Z,5.90
2017-07-28T18:57:09.573Z,5.07
2017-07-28T18:59:38.063Z,5.83
2017-07-28T19:02:06.486Z,6.20
2017-07-28T19:04:35.158Z,4.90
2017-07-28T19:07:03.579Z,5.13
2017-07-28T19:09:32.034Z,4.90
2017-07-28T19:12:00.977Z,5.87
2017-07-28T19:14:29.428Z,6.00
2017-07-28T19:16:57.834Z,6.10
2017-07-28T19:19:26.818Z,5.70
2017-07-28T19:21:55.184Z,6.03
2017-07-28T19:24:23.557Z,6.43
2017-07-28T19:26:52.350Z,6.73
2017-07-28T19:29:20.702Z,6.40
2017-07-28T19:31:49.087Z,6.10
2017-07-28T19:34:17.925Z,5.57
2017-07-28T19:36:46.314Z,5.70
2017-07-28T19:39:14.709Z,5.03
2017-07-28T19:41:44.323Z,5.20
2017-07-28T19:44:12.728Z,5.43
2017-07-28T19:46:41.096Z,5.03
2017-07-28T19:49:09.993Z,4.77
2017-07-28T19:51:38.345Z,5.03
2017-07-28T19:54:06.710Z,5.17
2017-07-28T19:56:35.375Z,5.00
2017-07-28T19:59:04.422Z,4.20
2017-07-28T20:01:32.787Z,4.63
2017-07-28T20:04:01.733Z,5.40
2017-07-28T20:06:30.146Z,5.53
2017-07-28T20:08:59.968Z,4.60
2017-07-28T20:11:29.440Z,6.00
2017-07-28T20:13:57.802Z,5.23
2017-07-28T20:16:26.147Z,5.53
2017-07-28T20:18:55.039Z,4.80
2017-07-28T20:21:23.404Z,5.60
2017-07-28T20:23:51.788Z,5.80
2017-07-28T20:26:20.754Z,5.90
2017-07-28T20:28:49.116Z,5.03
2017-07-28T20:31:17.476Z,5.30
2017-07-28T20:33:46.351Z,4.87
2017-07-28T20:36:14.696Z,4.67
2017-07-28T20:38:43.068Z,4.83
2017-07-28T20:41:11.865Z,5.20
2017-07-28T20:43:41.063Z,5.80
2017-07-28T20:46:09.414Z,5.60
2017-07-28T20:48:38.316Z,5.10
2017-07-28T20:51:06.687Z,5.13
2017-07-28T20:53:35.028Z,5.20
2017-07-28T20:56:03.760Z,4.20
2017-07-28T20:58:32.792Z,5.10
2017-07-28T21:01:01.495Z,4.43
2017-07-28T21:03:30.128Z,5.47
2017-07-28T21:05:58.495Z,4.10
2017-07-28T21:08:26.881Z,5.27
2017-07-28T21:10:55.841Z,4.57
2017-07-28T21:13:25.001Z,4.87
2017-07-28T21:15:54.153Z,4.57
2017-07-28T21:18:22.931Z,4.40
2017-07-28T21:20:51.312Z,5.03
2017-07-28T21:23:19.663Z,5.03
2017-07-28T21:25:48.563Z,5.27
2017-07-28T21:28:16.945Z,5.40
2017-07-28T21:30:45.296Z,5.27
2017-07-28T21:33:14.210Z,4.97
2017-07-28T21:35:42.585Z,4.60
2017-07-28T21:38:11.678Z,4.80
2017-07-28T21:40:41.616Z,4.90
2017-07-28T21:43:10.001Z,5.00
2017-07-28T21:45:38.359Z,4.07
2017-07-28T21:48:07.184Z,4.83
2017-07-28T21:50:35.523Z,5.00
2017-07-28T21:53:03.886Z,4.80
2017-07-28T21:55:32.740Z,5.10
2017-07-28T21:58:01.098Z,4.63
2017-07-28T22:00:29.504Z,4.57
2017-07-28T22:02:58.278Z,4.10
2017-07-28T22:05:26.658Z,4.53
2017-07-28T22:07:55.033Z,4.53
2017-07-28T22:10:23.682Z,4.80
2017-07-28T22:12:52.020Z,4.87
2017-07-28T22:15:20.392Z,5.00
2017-07-28T22:17:49.564Z,5.37
2017-07-28T22:20:17.932Z,4.70
2017-07-28T22:22:46.305Z,4.90
2017-07-28T22:25:15.187Z,5.60
2017-07-28T22:27:43.564Z,5.13
2017-07-28T22:30:12.703Z,5.43
2017-07-28T22:32:41.490Z,5.30
2017-07-28T22:35:09.848Z,5.30
2017-07-28T22:37:38.530Z,4.60
2017-07-28T22:40:07.566Z,5.37
2017-07-28T22:42:35.919Z,5.40
2017-07-28T22:45:05.202Z,4.80
2017-07-28T22:47:33.959Z,4.70
2017-07-28T22:50:02.322Z,5.00
2017-07-28T22:52:30.684Z,5.50
2017-07-28T22:54:59.362Z,5.53
2017-07-28T22:57:27.747Z,5.37
2017-07-28T22:59:56.124Z,4.93
2017-07-28T23:02:25.046Z,5.40
2017-07-28T23:04:53.429Z,5.43
2017-07-28T23:07:21.804Z,5.13
2017-07-28T23:09:50.739Z,5.80
2017-07-28T23:12:19.373Z,5.00
2017-07-28T23:14:47.729Z,5.40
2017-07-28T23:17:16.606Z,5.83
2017-07-28T23:19:45.031Z,5.90
2017-07-28T23:22:13.389Z,5.73
2017-07-28T23:24:42.284Z,6.10
2017-07-28T23:27:10.657Z,5.43
2017-07-28T23:29:39.038Z,5.70
2017-07-28T23:32:07.725Z,5.60
2017-07-28T23:34:36.096Z,5.97
2017-07-28T23:37:04.505Z,5.40
2017-07-28T23:39:33.363Z,5.87
2017-07-28T23:42:01.721Z,6.40
2017-07-28T23:44:30.094Z,6.50
2017-07-28T23:46:58.899Z,6.17
2017-07-28T23:49:27.267Z,5.10
2017-07-28T23:51:55.623Z,6.77
2017-07-28T23:54:25.597Z,6.60
2017-07-28T23:56:53.989Z,6.87
2017-07-28T23:59:22.416Z,6.50
